Terminal Aerodrome Forecast
Issued by NWS Jackson, KY

Home | Current Version | Previous Version | Text Only | Print | Product List | Glossary On
Versions: 1 2 3 4 5 6 7 8 9 10 11 12 13 14 15 16 17
145
FTUS43 KJKL 172335
TAFJKL
TAF
KJKL 172335Z 1800/1824 26008KT P6SM VCSH SCT015 BKN025
     FM180100 27008KT P6SM VCSH OVC035
     FM180300 27008KT P6SM OVC015
     FM180600 27007KT P6SM -DZ OVC008
     FM181700 27004KT P6SM BKN015
     FM182300 VRB03KT P6SM BKN035=

USA.gov is the U.S. government's official web portal to all federal, state and local government web resources and services.